createdAt,value
2019-06-01T00:01:48.896Z,100619.30
2019-06-01T00:04:21.532Z,100619.19
2019-06-01T00:06:58.242Z,100617.70
2019-06-01T00:09:30.809Z,100617.31
2019-06-01T00:12:06.856Z,100614.67
2019-06-01T00:14:39.689Z,100612.97
2019-06-01T00:17:14.206Z,100611.30
2019-06-01T00:19:48.233Z,100611.20
2019-06-01T00:22:22.278Z,100607.98
2019-06-01T00:24:57.708Z,100604.59
2019-06-01T00:27:31.812Z,100606.77
2019-06-01T00:30:06.286Z,100607.02
2019-06-01T00:32:42.987Z,100605.80
2019-06-01T00:35:16.788Z,100604.38
2019-06-01T00:37:50.189Z,100604.27
2019-06-01T00:40:23.621Z,100609.14
2019-06-01T00:42:57.820Z,100608.95
2019-06-01T00:45:31.873Z,100602.25
2019-06-01T00:48:04.751Z,100606.64
2019-06-01T00:50:40.033Z,100605.27
2019-06-01T00:53:24.289Z,100603.17
2019-06-01T00:55:59.027Z,100599.97
2019-06-01T00:58:31.812Z,100602.16
2019-06-01T01:01:05.631Z,100600.73
2019-06-01T01:03:38.321Z,100611.33
2019-06-01T01:06:11.032Z,100611.00
2019-06-01T01:08:44.779Z,100614.92
2019-06-01T01:11:17.778Z,100615.82
2019-06-01T01:13:51.322Z,100614.77
2019-06-01T01:16:23.982Z,100617.70
2019-06-01T01:18:57.443Z,100615.20
2019-06-01T01:21:31.723Z,100614.98
2019-06-01T01:24:05.542Z,100612.38
2019-06-01T01:26:39.680Z,100610.83
2019-06-01T01:29:12.339Z,100614.03
2019-06-01T01:31:47.015Z,100610.89
2019-06-01T01:34:19.763Z,100616.09
2019-06-01T01:36:54.318Z,100615.27
2019-06-01T01:39:26.955Z,100612.10
2019-06-01T01:41:59.941Z,100610.50
2019-06-01T01:44:33.604Z,100605.78
2019-06-01T01:47:07.592Z,100606.84
2019-06-01T01:49:40.982Z,100602.07
2019-06-01T01:52:13.471Z,100601.58
2019-06-01T01:54:46.557Z,100603.75
2019-06-01T01:57:19.316Z,100599.58
2019-06-01T01:59:51.924Z,100599.58
2019-06-01T02:02:24.564Z,100601.75
2019-06-01T02:04:57.843Z,100598.81
2019-06-01T02:07:30.875Z,100599.98
2019-06-01T02:10:04.006Z,100593.72
2019-06-01T02:12:38.722Z,100596.21
2019-06-01T02:15:14.241Z,100603.41
2019-06-01T02:17:47.427Z,100603.01
2019-06-01T02:20:20.055Z,100599.25
2019-06-01T02:22:53.012Z,100596.83
2019-06-01T02:25:25.888Z,100591.38
2019-06-01T02:27:59.228Z,100591.00
2019-06-01T02:30:31.922Z,100594.02
2019-06-01T02:33:04.902Z,100594.17
2019-06-01T02:35:37.598Z,100591.11
2019-06-01T02:38:10.217Z,100587.64
2019-06-01T02:40:42.863Z,100586.41
2019-06-01T02:43:16.369Z,100581.74
2019-06-01T02:45:50.082Z,100580.98
2019-06-01T02:48:22.643Z,100577.22
2019-06-01T02:50:59.815Z,100579.39
2019-06-01T02:53:33.845Z,100579.37
2019-06-01T02:56:09.955Z,100581.19
2019-06-01T02:58:42.831Z,100583.48
2019-06-01T03:01:34.747Z,100584.31
2019-06-01T03:04:10.067Z,100581.53
2019-06-01T03:06:44.275Z,100575.34
2019-06-01T03:09:20.267Z,100575.33
2019-06-01T03:12:00.401Z,100573.09
2019-06-01T03:14:39.118Z,100570.00
2019-06-01T03:17:23.294Z,100573.00
2019-06-01T03:20:02.650Z,100574.33
2019-06-01T03:22:41.322Z,100575.64
2019-06-01T03:25:14.458Z,100581.17
2019-06-01T03:27:56.301Z,100580.61
2019-06-01T03:30:45.528Z,100582.09
2019-06-01T03:33:18.748Z,100587.66
2019-06-01T03:35:51.533Z,100590.17
2019-06-01T03:38:25.084Z,100587.35
2019-06-01T03:40:57.604Z,100587.97
2019-06-01T03:43:30.835Z,100586.25
2019-06-01T03:46:05.130Z,100583.16
2019-06-01T03:48:37.766Z,100583.96
2019-06-01T03:51:14.418Z,100589.07
2019-06-01T03:53:48.216Z,100583.70
2019-06-01T03:56:20.925Z,100577.08
2019-06-01T03:58:54.682Z,100580.91
2019-06-01T04:01:27.276Z,100583.80
2019-06-01T04:04:02.831Z,100580.98
2019-06-01T04:06:35.703Z,100581.86
2019-06-01T04:09:09.831Z,100588.02
2019-06-01T04:11:44.802Z,100589.72
2019-06-01T04:14:17.352Z,100596.74
2019-06-01T04:16:51.583Z,100598.45
2019-06-01T04:19:24.248Z,100598.39
2019-06-01T04:21:56.903Z,100595.44
2019-06-01T04:24:41.019Z,100592.87
2019-06-01T04:27:23.946Z,100597.89
2019-06-01T04:29:56.962Z,100602.77
2019-06-01T04:32:29.656Z,100604.41
2019-06-01T04:35:03.423Z,100608.43
2019-06-01T04:37:36.078Z,100606.91
2019-06-01T04:40:13.937Z,100611.92
2019-06-01T04:42:49.471Z,100615.51
2019-06-01T04:45:22.063Z,100617.58
2019-06-01T04:47:54.452Z,100615.98
2019-06-01T04:50:27.528Z,100617.73
2019-06-01T04:53:00.269Z,100619.23
2019-06-01T04:55:32.914Z,100616.88
2019-06-01T04:58:06.687Z,100617.95
2019-06-01T05:00:39.526Z,100616.13
2019-06-01T05:03:13.500Z,100616.80
2019-06-01T05:05:46.169Z,100618.09
2019-06-01T05:08:18.776Z,100617.98
2019-06-01T05:10:52.156Z,100617.30
2019-06-01T05:13:25.115Z,100606.04
2019-06-01T05:15:58.333Z,100602.05
2019-06-01T05:18:31.645Z,100608.09
2019-06-01T05:21:06.328Z,100607.03
2019-06-01T05:23:43.133Z,100607.78
2019-06-01T05:26:17.170Z,100606.70
2019-06-01T05:28:55.498Z,100600.19
2019-06-01T05:31:28.124Z,100599.34
2019-06-01T05:34:02.819Z,100590.83
2019-06-01T05:36:36.326Z,100590.38
2019-06-01T05:39:12.326Z,100591.67
2019-06-01T05:41:44.951Z,100596.73
2019-06-01T05:44:19.218Z,100598.96
2019-06-01T05:46:53.017Z,100589.63
2019-06-01T05:49:25.686Z,100586.88
2019-06-01T05:51:59.251Z,100587.72
2019-06-01T05:54:33.065Z,100589.32
2019-06-01T05:57:07.256Z,100588.72
2019-06-01T05:59:40.483Z,100590.50
2019-06-01T06:02:13.839Z,100585.23
2019-06-01T06:04:46.486Z,100591.60
2019-06-01T06:07:20.902Z,100594.63
2019-06-01T06:09:53.474Z,100596.06
2019-06-01T06:12:26.599Z,100591.59
2019-06-01T06:15:00.187Z,100597.22
2019-06-01T06:17:35.907Z,100596.24
2019-06-01T06:20:08.914Z,100595.12
2019-06-01T06:22:41.445Z,100585.61
2019-06-01T06:25:14.470Z,100579.45
2019-06-01T06:27:47.079Z,100575.77
2019-06-01T06:30:21.097Z,100576.47
2019-06-01T06:32:53.935Z,100571.84
2019-06-01T06:35:26.493Z,100575.75
2019-06-01T06:37:59.995Z,100578.86
2019-06-01T06:40:33.590Z,100578.27
2019-06-01T06:43:18.699Z,100575.87
2019-06-01T06:46:03.922Z,100583.08
2019-06-01T06:48:36.576Z,100587.15
2019-06-01T06:51:10.853Z,100590.13
2019-06-01T06:53:46.793Z,100592.66
2019-06-01T06:56:19.938Z,100589.37
2019-06-01T06:58:52.671Z,100593.27
2019-06-01T07:01:26.960Z,100592.21
2019-06-01T07:04:12.180Z,100597.02
2019-06-01T07:06:49.255Z,100602.22
2019-06-01T07:09:24.074Z,100601.23
2019-06-01T07:11:57.073Z,100598.32
2019-06-01T07:14:29.668Z,100595.73
2019-06-01T07:17:02.260Z,100601.98
2019-06-01T07:19:34.815Z,100604.21
2019-06-01T07:22:07.362Z,100605.67
2019-06-01T07:24:40.922Z,100602.54
2019-06-01T07:27:13.596Z,100604.05
2019-06-01T07:29:46.161Z,100601.05
2019-06-01T07:32:20.568Z,100601.86
2019-06-01T07:34:53.315Z,100599.32
2019-06-01T07:37:28.336Z,100603.39
2019-06-01T07:40:01.104Z,100602.13
2019-06-01T07:42:35.189Z,100607.03
2019-06-01T07:45:08.750Z,100609.77
2019-06-01T07:47:42.620Z,100603.80
2019-06-01T07:50:15.665Z,100594.89
2019-06-01T07:52:49.549Z,100604.25
2019-06-01T07:55:23.389Z,100605.78
2019-06-01T07:57:56.947Z,100603.86
2019-06-01T08:00:29.559Z,100603.06
2019-06-01T08:03:04.189Z,100603.40
2019-06-01T08:05:37.838Z,100596.60
2019-06-01T08:08:10.847Z,100596.11
2019-06-01T08:10:44.225Z,100590.52
2019-06-01T08:13:17.193Z,100594.70
2019-06-01T08:15:54.141Z,100598.88
2019-06-01T08:18:28.089Z,100596.72
2019-06-01T08:21:02.045Z,100593.23
2019-06-01T08:23:44.796Z,100592.70
2019-06-01T08:26:20.047Z,100596.48
2019-06-01T08:28:52.979Z,100588.50
2019-06-01T08:31:28.588Z,100591.47
2019-06-01T08:34:01.580Z,100589.30
2019-06-01T08:36:40.406Z,100590.39
2019-06-01T08:39:13.085Z,100581.50
2019-06-01T08:41:45.658Z,100581.80
2019-06-01T08:44:20.329Z,100583.09
2019-06-01T08:46:56.369Z,100581.11
2019-06-01T08:49:30.667Z,100587.31
2019-06-01T08:52:05.730Z,100588.26
2019-06-01T08:54:39.738Z,100581.46
2019-06-01T08:57:12.370Z,100579.03
2019-06-01T08:59:46.751Z,100576.92
2019-06-01T09:02:21.082Z,100574.05
2019-06-01T09:04:54.662Z,100570.23
2019-06-01T09:07:29.510Z,100572.95
2019-06-01T09:10:02.207Z,100569.28
2019-06-01T09:12:38.771Z,100569.73
2019-06-01T09:15:15.200Z,100559.84
2019-06-01T09:17:48.664Z,100565.72
2019-06-01T09:20:22.470Z,100566.17
2019-06-01T09:22:59.897Z,100564.00
2019-06-01T09:25:35.632Z,100563.58
2019-06-01T09:28:15.465Z,100564.45
2019-06-01T09:30:51.211Z,100567.31
2019-06-01T09:33:23.963Z,100567.25
2019-06-01T09:35:59.026Z,100567.66
2019-06-01T09:38:36.053Z,100563.64
2019-06-01T09:41:17.763Z,100563.81
2019-06-01T09:44:05.369Z,100561.05
2019-06-01T09:46:45.203Z,100564.77
2019-06-01T09:49:17.984Z,100560.80
2019-06-01T09:51:51.051Z,100560.01
2019-06-01T09:54:24.476Z,100561.81
2019-06-01T09:57:01.585Z,100555.98
2019-06-01T09:59:36.052Z,100556.41
2019-06-01T10:02:11.779Z,100554.52
2019-06-01T10:04:46.540Z,100550.06
2019-06-01T10:07:26.800Z,100550.73
2019-06-01T10:09:59.514Z,100546.76
2019-06-01T10:12:32.069Z,100551.62
2019-06-01T10:15:07.909Z,100553.09
2019-06-01T10:17:41.446Z,100546.55
2019-06-01T10:20:14.402Z,100550.22
2019-06-01T10:22:48.783Z,100541.27
2019-06-01T10:25:32.515Z,100543.52
2019-06-01T10:28:22.133Z,100543.61
2019-06-01T10:31:03.591Z,100545.61
2019-06-01T10:33:51.280Z,100546.02
2019-06-01T10:36:27.877Z,100538.19
2019-06-01T10:39:04.207Z,100537.36
2019-06-01T10:41:37.550Z,100536.44
2019-06-01T10:44:11.713Z,100531.09
2019-06-01T10:46:46.757Z,100529.50
2019-06-01T10:49:20.210Z,100528.04
2019-06-01T10:51:53.432Z,100525.66
2019-06-01T10:54:26.762Z,100524.61
2019-06-01T10:57:00.538Z,100518.04
2019-06-01T10:59:34.203Z,100521.22
2019-06-01T11:02:08.677Z,100524.21
2019-06-01T11:04:41.284Z,100526.49
2019-06-01T11:07:15.576Z,100524.38
2019-06-01T11:09:50.313Z,100520.91
2019-06-01T11:12:23.897Z,100514.60
2019-06-01T11:14:58.418Z,100515.89
2019-06-01T11:17:31.215Z,100508.09
2019-06-01T11:20:09.567Z,100504.52
2019-06-01T11:22:46.416Z,100506.47
2019-06-01T11:25:21.493Z,100507.42
2019-06-01T11:27:57.095Z,100497.78
2019-06-01T11:30:31.884Z,100495.30
2019-06-01T11:33:06.746Z,100493.47
2019-06-01T11:35:39.403Z,100497.28
2019-06-01T11:38:12.945Z,100485.45
2019-06-01T11:40:53.478Z,100490.91
2019-06-01T11:43:26.125Z,100491.06
2019-06-01T11:46:02.273Z,100485.86
2019-06-01T11:48:37.148Z,100482.47
2019-06-01T11:51:21.412Z,100485.67
2019-06-01T11:53:54.101Z,100480.08
2019-06-01T11:56:27.819Z,100471.06
2019-06-01T11:59:03.971Z,100472.79
2019-06-01T12:01:44.141Z,100467.81
2019-06-01T12:04:18.609Z,100462.07
2019-06-01T12:07:13.716Z,100469.69
2019-06-01T12:09:50.735Z,100463.61
2019-06-01T12:12:23.803Z,100463.56
2019-06-01T12:14:57.518Z,100463.99
2019-06-01T12:17:32.269Z,100461.94
2019-06-01T12:20:11.105Z,100456.21
2019-06-01T12:22:45.141Z,100459.52
2019-06-01T12:25:19.363Z,100456.70
2019-06-01T12:27:55.856Z,100452.74
2019-06-01T12:30:29.873Z,100454.08
2019-06-01T12:33:02.963Z,100454.73
2019-06-01T12:35:37.904Z,100450.36
2019-06-01T12:38:12.240Z,100443.36
2019-06-01T12:40:47.415Z,100436.61
2019-06-01T12:43:23.287Z,100430.02
2019-06-01T12:46:07.114Z,100422.66
2019-06-01T12:48:43.889Z,100425.31
2019-06-01T12:51:20.590Z,100425.55
2019-06-01T12:53:54.349Z,100425.66
2019-06-01T12:56:36.700Z,100420.37
2019-06-01T12:59:14.420Z,100416.81
2019-06-01T13:01:51.379Z,100417.81
2019-06-01T13:04:24.688Z,100413.31
2019-06-01T13:06:59.083Z,100401.05
2019-06-01T13:09:32.737Z,100407.69
2019-06-01T13:12:05.561Z,100402.17
2019-06-01T13:14:39.379Z,100404.61
2019-06-01T13:17:20.750Z,100395.66
2019-06-01T13:19:56.912Z,100392.84
2019-06-01T13:22:29.788Z,100393.83
2019-06-01T13:25:03.700Z,100388.97
2019-06-01T13:27:40.794Z,100387.62
2019-06-01T13:30:19.075Z,100391.28
2019-06-01T13:32:52.773Z,100390.98
2019-06-01T13:35:26.314Z,100384.86
2019-06-01T13:38:11.556Z,100381.05
2019-06-01T13:40:48.964Z,100379.08
2019-06-01T13:43:22.627Z,100374.06
2019-06-01T13:45:55.938Z,100374.08
2019-06-01T13:48:28.537Z,100362.56
2019-06-01T13:51:02.337Z,100364.56
2019-06-01T13:53:34.855Z,100356.86
2019-06-01T13:56:11.533Z,100359.94
2019-06-01T13:58:46.292Z,100357.05
2019-06-01T14:01:21.571Z,100347.20
2019-06-01T14:04:02.648Z,100357.46
2019-06-01T14:06:40.625Z,100358.08
2019-06-01T14:09:13.732Z,100355.20
2019-06-01T14:11:47.409Z,100353.01
2019-06-01T14:14:20.041Z,100346.52
2019-06-01T14:16:55.661Z,100343.15
2019-06-01T14:19:28.509Z,100346.95
2019-06-01T14:22:01.165Z,100332.70
2019-06-01T14:24:34.570Z,100331.60
2019-06-01T14:27:08.554Z,100331.94
2019-06-01T14:29:46.435Z,100329.06
2019-06-01T14:32:19.178Z,100326.39
2019-06-01T14:34:53.378Z,100326.69
2019-06-01T14:37:27.211Z,100327.14
2019-06-01T14:39:59.771Z,100325.05
2019-06-01T14:42:33.973Z,100324.44
2019-06-01T14:45:14.158Z,100323.09
2019-06-01T14:47:51.464Z,100317.98
2019-06-01T14:50:25.912Z,100314.77
2019-06-01T14:53:01.629Z,100314.06
2019-06-01T14:55:34.999Z,100312.70
2019-06-01T14:58:09.436Z,100316.64
2019-06-01T15:00:42.075Z,100310.72
2019-06-01T15:03:18.729Z,100309.48
2019-06-01T15:05:54.955Z,100307.59
2019-06-01T15:08:29.762Z,100300.84
2019-06-01T15:11:03.541Z,100305.06
2019-06-01T15:13:36.324Z,100300.36
2019-06-01T15:16:10.070Z,100297.70
2019-06-01T15:18:43.966Z,100299.55
2019-06-01T15:21:19.468Z,100301.25
2019-06-01T15:23:53.862Z,100301.20
2019-06-01T15:26:26.579Z,100298.72
2019-06-01T15:29:00.151Z,100300.43
2019-06-01T15:31:33.397Z,100293.85
2019-06-01T15:34:07.431Z,100289.98
2019-06-01T15:36:53.550Z,100289.76
2019-06-01T15:39:41.245Z,100276.69
2019-06-01T15:42:18.738Z,100273.75
2019-06-01T15:44:51.411Z,100275.33
2019-06-01T15:47:27.226Z,100270.70
2019-06-01T15:50:02.893Z,100269.51
2019-06-01T15:52:37.305Z,100275.64
2019-06-01T15:55:10.456Z,100266.77
2019-06-01T15:57:43.215Z,100267.08
2019-06-01T16:00:20.030Z,100260.64
2019-06-01T16:02:53.340Z,100256.28
2019-06-01T16:05:27.724Z,100257.45
2019-06-01T16:08:01.606Z,100252.16
2019-06-01T16:10:37.942Z,100242.53
2019-06-01T16:13:11.230Z,100248.33
2019-06-01T16:15:44.291Z,100245.75
2019-06-01T16:18:17.636Z,100252.25
2019-06-01T16:20:51.416Z,100251.30
2019-06-01T16:23:28.732Z,100239.70
2019-06-01T16:26:15.480Z,100240.45
2019-06-01T16:28:52.604Z,100237.77
2019-06-01T16:31:26.355Z,100233.53
2019-06-01T16:33:59.052Z,100230.63
2019-06-01T16:36:34.226Z,100231.66
2019-06-01T16:39:09.526Z,100233.84
2019-06-01T16:41:42.288Z,100235.38
2019-06-01T16:44:20.354Z,100231.75
2019-06-01T16:46:55.557Z,100230.34
2019-06-01T16:49:28.512Z,100230.48
2019-06-01T16:52:03.328Z,100233.83
2019-06-01T16:54:36.268Z,100227.13
2019-06-01T16:57:09.312Z,100228.11
2019-06-01T16:59:42.865Z,100228.26
2019-06-01T17:02:16.159Z,100220.99
2019-06-01T17:04:49.807Z,100212.31
2019-06-01T17:07:24.852Z,100214.30
2019-06-01T17:10:08.147Z,100214.95
2019-06-01T17:12:56.761Z,100213.10
2019-06-01T17:15:31.680Z,100212.95
2019-06-01T17:18:10.333Z,100207.24
2019-06-01T17:20:49.580Z,100204.81
2019-06-01T17:23:27.509Z,100208.95
2019-06-01T17:26:04.132Z,100203.84
2019-06-01T17:28:38.855Z,100199.48
2019-06-01T17:31:14.894Z,100197.31
2019-06-01T17:33:49.555Z,100199.00
2019-06-01T17:36:22.149Z,100198.64
2019-06-01T17:38:54.737Z,100197.73
2019-06-01T17:41:27.444Z,100196.50
2019-06-01T17:44:02.612Z,100198.27
2019-06-01T17:46:53.068Z,100195.07
2019-06-01T17:49:27.713Z,100196.10
2019-06-01T17:52:03.667Z,100198.06
2019-06-01T17:54:36.430Z,100196.16
2019-06-01T17:57:12.230Z,100198.75
2019-06-01T17:59:45.061Z,100198.70
2019-06-01T18:02:17.967Z,100199.20
2019-06-01T18:04:50.617Z,100195.07
2019-06-01T18:07:33.890Z,100193.69
2019-06-01T18:10:12.564Z,100193.84
2019-06-01T18:12:46.340Z,100190.84
2019-06-01T18:15:26.498Z,100189.92
2019-06-01T18:18:00.271Z,100180.55
2019-06-01T18:20:35.086Z,100180.38
2019-06-01T18:23:10.130Z,100181.39
2019-06-01T18:25:45.735Z,100175.95
2019-06-01T18:28:20.115Z,100175.17
2019-06-01T18:30:55.121Z,100175.48
2019-06-01T18:33:30.156Z,100176.08
2019-06-01T18:36:07.559Z,100176.34
2019-06-01T18:38:41.477Z,100176.39
2019-06-01T18:41:18.326Z,100183.64
2019-06-01T18:43:53.050Z,100185.27
2019-06-01T18:46:34.780Z,100180.69
2019-06-01T18:49:09.908Z,100178.63
2019-06-01T18:51:44.945Z,100175.93
2019-06-01T18:54:19.111Z,100174.41
2019-06-01T18:57:06.835Z,100173.11
2019-06-01T18:59:44.439Z,100175.43
2019-06-01T19:02:18.553Z,100174.00
2019-06-01T19:04:51.207Z,100171.94
2019-06-01T19:07:28.895Z,100166.58
2019-06-01T19:10:02.436Z,100166.59
2019-06-01T19:12:39.127Z,100167.80
2019-06-01T19:15:27.840Z,100164.59
2019-06-01T19:18:02.812Z,100158.56
2019-06-01T19:20:36.105Z,100163.73
2019-06-01T19:23:08.783Z,100162.03
2019-06-01T19:25:41.499Z,100155.86
2019-06-01T19:28:21.658Z,100161.45
2019-06-01T19:30:57.099Z,100160.56
2019-06-01T19:33:38.378Z,100162.70
2019-06-01T19:36:13.276Z,100167.89
2019-06-01T19:38:48.190Z,100166.26
2019-06-01T19:41:22.344Z,100166.78
2019-06-01T19:44:01.460Z,100171.05
2019-06-01T19:46:37.677Z,100165.81
2019-06-01T19:49:16.958Z,100169.81
2019-06-01T19:51:50.684Z,100168.61
2019-06-01T19:54:23.298Z,100163.50
2019-06-01T19:56:56.852Z,100165.69
2019-06-01T19:59:30.907Z,100164.08
2019-06-01T20:02:04.394Z,100168.03
2019-06-01T20:04:38.127Z,100165.37
2019-06-01T20:07:13.095Z,100166.16
2019-06-01T20:09:48.772Z,100168.92
2019-06-01T20:12:30.715Z,100166.59
2019-06-01T20:15:37.846Z,100167.83
2019-06-01T20:18:25.147Z,100166.81
2019-06-01T20:20:58.862Z,100165.05
2019-06-01T20:23:35.764Z,100162.58
2019-06-01T20:26:13.538Z,100162.97
2019-06-01T20:28:46.936Z,100161.46
2019-06-01T20:31:21.962Z,100162.67
2019-06-01T20:33:58.569Z,100163.92
2019-06-01T20:36:39.095Z,100163.92
2019-06-01T20:39:14.202Z,100166.47
2019-06-01T20:41:53.337Z,100164.61
2019-06-01T20:44:27.638Z,100160.05
2019-06-01T20:47:10.742Z,100163.94
2019-06-01T20:49:57.057Z,100155.36
2019-06-01T20:52:32.332Z,100154.38
2019-06-01T20:55:07.419Z,100157.27
2019-06-01T20:57:41.130Z,100159.58
2019-06-01T21:00:18.109Z,100155.36
2019-06-01T21:02:52.228Z,100155.93
2019-06-01T21:05:24.993Z,100160.16
2019-06-01T21:08:01.134Z,100159.56
2019-06-01T21:10:38.119Z,100159.17
2019-06-01T21:13:14.149Z,100155.61
2019-06-01T21:15:47.787Z,100156.16
2019-06-01T21:18:22.850Z,100155.45
2019-06-01T21:20:57.546Z,100154.75
2019-06-01T21:23:30.283Z,100151.61
2019-06-01T21:26:05.057Z,100146.48
2019-06-01T21:28:39.463Z,100149.26
2019-06-01T21:31:14.808Z,100151.61
2019-06-01T21:33:48.735Z,100152.76
2019-06-01T21:36:25.841Z,100150.23
2019-06-01T21:39:01.606Z,100145.52
2019-06-01T21:41:35.128Z,100143.26
2019-06-01T21:44:17.447Z,100147.04
2019-06-01T21:46:51.224Z,100141.39
2019-06-01T21:49:31.429Z,100137.26
2019-06-01T21:52:04.222Z,100136.91
2019-06-01T21:54:38.846Z,100134.35
2019-06-01T21:57:16.005Z,100136.73
2019-06-01T21:59:50.885Z,100134.66
2019-06-01T22:02:24.951Z,100127.42
2019-06-01T22:04:59.210Z,100127.90
2019-06-01T22:07:31.760Z,100127.14
2019-06-01T22:10:07.377Z,100125.98
2019-06-01T22:12:42.987Z,100122.65
2019-06-01T22:15:19.452Z,100118.34
2019-06-01T22:17:53.423Z,100122.66
2019-06-01T22:20:28.537Z,100115.98
2019-06-01T22:23:01.784Z,100114.93
2019-06-01T22:25:35.985Z,100110.02
2019-06-01T22:28:08.841Z,100107.83
2019-06-01T22:30:43.009Z,100109.78
2019-06-01T22:33:16.562Z,100113.14
2019-06-01T22:35:49.161Z,100109.48
2019-06-01T22:38:25.853Z,100113.61
2019-06-01T22:41:00.709Z,100106.37
2019-06-01T22:43:45.648Z,100115.80
2019-06-01T22:46:20.797Z,100115.13
2019-06-01T22:48:53.723Z,100108.34
2019-06-01T22:51:27.067Z,100101.80
2019-06-01T22:54:00.605Z,100100.89
2019-06-01T22:56:36.847Z,100100.17
2019-06-01T22:59:10.514Z,100097.90
2019-06-01T23:01:43.782Z,100093.97
2019-06-01T23:04:18.427Z,100095.12
2019-06-01T23:06:55.825Z,100094.58
2019-06-01T23:09:31.671Z,100095.24
2019-06-01T23:12:07.351Z,100092.39
2019-06-01T23:14:39.937Z,100094.14
2019-06-01T23:17:13.686Z,100096.81
2019-06-01T23:19:47.024Z,100098.56
2019-06-01T23:22:19.680Z,100090.66
2019-06-01T23:24:56.532Z,100083.00
2019-06-01T23:27:31.072Z,100085.11
2019-06-01T23:30:06.447Z,100083.73
2019-06-01T23:32:41.890Z,100081.61
2019-06-01T23:35:20.010Z,100079.47
2019-06-01T23:37:52.594Z,100079.62
2019-06-01T23:40:26.476Z,100074.67
2019-06-01T23:42:59.201Z,100072.39
2019-06-01T23:45:32.918Z,100072.92
2019-06-01T23:48:06.581Z,100065.88
2019-06-01T23:50:40.023Z,100068.01
2019-06-01T23:53:15.747Z,100060.67
2019-06-01T23:55:48.356Z,100055.77
2019-06-01T23:58:20.913Z,100053.34
